Time;durP1;ratioP1;P1;durP2;ratioP2;P2;SDS_P1;SDS_P2;PMS_P1;PMS_P2;Temp;Humidity;BMP_temperature;BMP_pressure;BME280_temperature;BME280_humidity;BME280_pressure;Samples;Min_cycle;Max_cycle;Signal;HPM_P1;HPM_P2
2023/05/15 00:01:40;;;;;;;;;;;;;;;;;;5054493;28;3431;-63
2023/05/15 00:04:05;;;;;;;;;;;;;;;;;;5047561;28;4660;-63
2023/05/15 00:06:30;;;;;;;;;;;;;;;;;;5050900;28;4485;-61
2023/05/15 00:08:55;;;;;;;;;;;;;;;;;;5050729;28;4460;-63
2023/05/15 00:11:22;;;;;;;;;;;;;;;;;;5048490;28;4480;-63
2023/05/15 00:13:47;;;;;;;;;;;;;;;;;;5051254;28;1083;-64
2023/05/15 00:16:13;;;;;;;;;;;;;;;;;;5056427;28;4568;-63
2023/05/15 00:18:38;;;;;;;;;;;;;;;;;;5051047;28;5748;-61
2023/05/15 00:21:03;;;;;;;;;;;;;;;;;;5050265;28;4657;-63
2023/05/15 00:23:28;;;;;;;;;;;;;;;;;;5050421;28;4470;-63
2023/05/15 00:25:54;;;;;;;;;;;;;;;;;;5048820;28;3047;-63
2023/05/15 00:28:19;;;;;;;;;;;;;;;;;;5050549;28;4793;-64
2023/05/15 00:30:44;;;;;;;;;;;;;;;;;;5051426;28;4659;-64
2023/05/15 00:33:09;;;;;;;;;;;;;;;;;;5047492;28;4709;-62
2023/05/15 00:35:35;;;;;;;;;;;;;;;;;;5051281;28;4603;-63
2023/05/15 00:38:00;;;;;;;;;;;;;;;;;;5051738;28;4532;-64
2023/05/15 00:40:25;;;;;;;;;;;;;;;;;;5051856;28;1263;-63
2023/05/15 00:42:51;;;;;;;;;;;;;;;;;;5065457;28;4619;-63
2023/05/15 00:45:16;;;;;;;;;;;;;;;;;;5053077;28;4541;-58
2023/05/15 00:47:41;;;;;;;;;;;;;;;;;;5046442;28;4707;-62
2023/05/15 00:50:07;;;;;;;;;;;;;;;;;;5046304;28;4684;-62
2023/05/15 00:52:32;;;;;;;;;;;;;;;;;;5052921;28;1134;-63
2023/05/15 00:54:58;;;;;;;;;;;;;;;;;;5048395;28;5117;-62
2023/05/15 00:57:23;;;;;;;;;;;;;;;;;;5049372;28;4597;-63
2023/05/15 00:59:48;;;;;;;;;;;;;;;;;;5052814;28;5123;-64
2023/05/15 01:02:14;;;;;;;;;;;;;;;;;;5048633;28;4826;-62
2023/05/15 01:04:39;;;;;;;;;;;;;;;;;;5047057;28;3219;-63
2023/05/15 01:07:04;;;;;;;;;;;;;;;;;;5048065;28;4431;-64
2023/05/15 01:09:30;;;;;;;;;;;;;;;;;;5048632;28;5095;-61
2023/05/15 01:11:55;;;;;;;;;;;;;;;;;;5052141;28;4662;-62
2023/05/15 01:14:21;;;;;;;;;;;;;;;;;;5048552;28;4777;-62
2023/05/15 01:16:46;;;;;;;;;;;;;;;;;;5049409;28;2927;-63
2023/05/15 01:19:11;;;;;;;;;;;;;;;;;;5046569;28;4459;-63
2023/05/15 01:21:36;;;;;;;;;;;;;;;;;;5052649;28;4453;-57
2023/05/15 01:24:08;;;;;;;;;;;;;;;;;;5049280;28;4657;-62
2023/05/15 01:26:39;;;;;;;;;;;;;;;;;;5051898;28;5116;-63
2023/05/15 01:29:08;;;;;;;;;;;;;;;;;;5046724;28;5014;-63
2023/05/15 01:31:33;;;;;;;;;;;;;;;;;;5055200;28;1125;-63
2023/05/15 01:34:00;;;;;;;;;;;;;;;;;;5067901;28;4676;-64
2023/05/15 01:36:28;;;;;;;;;;;;;;;;;;5049455;28;5178;-64
2023/05/15 01:38:55;;;;;;;;;;;;;;;;;;5063278;28;4549;-64
2023/05/15 01:41:28;;;;;;;;;;;;;;;;;;5052006;28;4693;-64
2023/05/15 01:43:58;;;;;;;;;;;;;;;;;;5049504;28;1229;-64
2023/05/15 01:46:23;;;;;;;;;;;;;;;;;;5034910;28;4372;-61
2023/05/15 01:48:49;;;;;;;;;;;;;;;;;;5045304;28;4631;-63
2023/05/15 01:51:14;;;;;;;;;;;;;;;;;;5053757;28;4471;-64
2023/05/15 01:53:39;;;;;;;;;;;;;;;;;;5048982;28;4650;-63
2023/05/15 01:56:05;;;;;;;;;;;;;;;;;;5045691;28;4720;-64
2023/05/15 01:58:30;;;;;;;;;;;;;;;;;;5048106;28;1171;-63
2023/05/15 02:00:55;;;;;;;;;;;;;;;;;;5050699;28;5236;-62
2023/05/15 02:03:20;;;;;;;;;;;;;;;;;;5048962;28;4705;-62
2023/05/15 02:05:46;;;;;;;;;;;;;;;;;;5044119;28;5007;-62
2023/05/15 02:08:11;;;;;;;;;;;;;;;;;;5048363;28;4453;-63
2023/05/15 02:10:37;;;;;;;;;;;;;;;;;;5048132;28;1209;-58
2023/05/15 02:13:03;;;;;;;;;;;;;;;;;;5080126;28;4884;-63
2023/05/15 02:15:28;;;;;;;;;;;;;;;;;;5046855;28;4487;-60
2023/05/15 02:17:54;;;;;;;;;;;;;;;;;;5048335;28;4551;-63
2023/05/15 02:20:19;;;;;;;;;;;;;;;;;;5048265;28;4541;-63
2023/05/15 02:22:45;;;;;;;;;;;;;;;;;;5048382;28;1115;-64
2023/05/15 02:25:10;;;;;;;;;;;;;;;;;;5046558;28;4474;-62
2023/05/15 02:27:56;;;;;;;;;;;;;;;;;;5046308;28;4656;-61
2023/05/15 02:30:21;;;;;;;;;;;;;;;;;;5047704;28;5078;-60
2023/05/15 02:32:49;;;;;;;;;;;;;;;;;;5048435;28;4925;-64
2023/05/15 02:35:30;;;;;;;;;;;;;;;;;;5067386;28;5053;-64
2023/05/15 02:37:55;;;;;;;;;;;;;;;;;;5046406;28;5032;-63
2023/05/15 02:40:22;;;;;;;;;;;;;;;;;;5045156;28;1068;-63
2023/05/15 02:42:47;;;;;;;;;;;;;;;;;;5044870;28;5037;-64
2023/05/15 02:45:12;;;;;;;;;;;;;;;;;;5077542;28;4486;-61
2023/05/15 02:47:38;;;;;;;;;;;;;;;;;;5045688;28;4622;-62
2023/05/15 02:50:04;;;;;;;;;;;;;;;;;;5045376;28;4474;-62
2023/05/15 02:52:30;;;;;;;;;;;;;;;;;;5047967;28;3292;-63
2023/05/15 02:54:55;;;;;;;;;;;;;;;;;;5048637;28;4986;-63
2023/05/15 02:57:20;;;;;;;;;;;;;;;;;;5041934;28;4459;-61
2023/05/15 02:59:45;;;;;;;;;;;;;;;;;;5046773;28;4707;-63
2023/05/15 03:02:11;;;;;;;;;;;;;;;;;;5047771;28;4472;-63
2023/05/15 03:04:36;;;;;;;;;;;;;;;;;;5051379;28;2999;-64
2023/05/15 03:07:01;;;;;;;;;;;;;;;;;;5049266;28;4432;-63
2023/05/15 03:09:27;;;;;;;;;;;;;;;;;;5051148;28;5176;-63
2023/05/15 03:11:52;;;;;;;;;;;;;;;;;;5045525;28;4912;-64
2023/05/15 03:14:17;;;;;;;;;;;;;;;;;;5044310;28;4486;-64
2023/05/15 03:16:42;;;;;;;;;;;;;;;;;;5050028;28;3300;-63
2023/05/15 03:19:08;;;;;;;;;;;;;;;;;;5045060;28;4396;-64
2023/05/15 03:21:33;;;;;;;;;;;;;;;;;;5047419;28;4653;-63
2023/05/15 03:23:59;;;;;;;;;;;;;;;;;;5045602;28;4502;-63
2023/05/15 03:26:24;;;;;;;;;;;;;;;;;;5045336;28;5016;-63
2023/05/15 03:28:50;;;;;;;;;;;;;;;;;;5044176;28;3308;-61
2023/05/15 03:31:15;;;;;;;;;;;;;;;;;;5053548;28;5195;-64
2023/05/15 03:33:40;;;;;;;;;;;;;;;;;;5048253;28;4521;-63
2023/05/15 03:36:06;;;;;;;;;;;;;;;;;;5050474;28;4636;-64
2023/05/15 03:38:31;;;;;;;;;;;;;;;;;;5052552;28;5195;-64
2023/05/15 03:40:56;;;;;;;;;;;;;;;;;;5047277;28;4657;-63
2023/05/15 03:43:22;;;;;;;;;;;;;;;;;;5051316;28;3178;-62
2023/05/15 03:45:47;;;;;;;;;;;;;;;;;;5049456;28;4521;-63
2023/05/15 03:48:13;;;;;;;;;;;;;;;;;;5044164;28;4500;-63
2023/05/15 03:50:39;;;;;;;;;;;;;;;;;;5050153;28;4534;-63
2023/05/15 03:53:04;;;;;;;;;;;;;;;;;;5046686;28;5076;-63
2023/05/15 03:55:29;;;;;;;;;;;;;;;;;;5047336;28;5090;-61
2023/05/15 03:57:55;;;;;;;;;;;;;;;;;;5048603;28;4985;-62
2023/05/15 04:00:20;;;;;;;;;;;;;;;;;;5045179;28;4639;-61
2023/05/15 04:02:46;;;;;;;;;;;;;;;;;;5047195;28;5342;-63
2023/05/15 04:05:12;;;;;;;;;;;;;;;;;;5046844;28;5089;-64
2023/05/15 04:07:37;;;;;;;;;;;;;;;;;;5048086;28;3166;-56
2023/05/15 04:10:03;;;;;;;;;;;;;;;;;;5046787;28;4704;-62
2023/05/15 04:12:28;;;;;;;;;;;;;;;;;;5050896;28;4607;-63
2023/05/15 04:14:58;;;;;;;;;;;;;;;;;;5045167;28;4705;-59
2023/05/15 04:17:23;;;;;;;;;;;;;;;;;;5042087;28;4859;-61
2023/05/15 04:19:48;;;;;;;;;;;;;;;;;;5038491;28;3162;-64
2023/05/15 04:22:13;;;;;;;;;;;;;;;;;;5050603;28;4674;-64
2023/05/15 04:24:39;;;;;;;;;;;;;;;;;;5047803;28;4410;-63
2023/05/15 04:27:04;;;;;;;;;;;;;;;;;;5050994;28;4459;-64
2023/05/15 04:29:29;;;;;;;;;;;;;;;;;;5046496;28;5103;-60
2023/05/15 04:31:54;;;;;;;;;;;;;;;;;;5046611;28;4759;-53
2023/05/15 04:34:20;;;;;;;;;;;;;;;;;;5047145;28;1116;-62
2023/05/15 04:36:45;;;;;;;;;;;;;;;;;;5050117;28;5182;-60
2023/05/15 04:39:11;;;;;;;;;;;;;;;;;;5052104;28;5068;-60
2023/05/15 04:41:36;;;;;;;;;;;;;;;;;;5046095;28;4474;-63
2023/05/15 04:44:02;;;;;;;;;;;;;;;;;;5044296;28;4540;-62
2023/05/15 04:46:28;;;;;;;;;;;;;;;;;;5055147;28;3155;-63
2023/05/15 04:48:53;;;;;;;;;;;;;;;;;;5046928;28;4933;-61
2023/05/15 04:51:18;;;;;;;;;;;;;;;;;;5049687;28;5056;-60
2023/05/15 04:53:43;;;;;;;;;;;;;;;;;;5049145;28;4453;-62
2023/05/15 04:56:08;;;;;;;;;;;;;;;;;;5051107;28;5100;-63
2023/05/15 04:58:34;;;;;;;;;;;;;;;;;;5048806;28;3197;-63
2023/05/15 05:00:59;;;;;;;;;;;;;;;;;;5051796;28;4776;-63
2023/05/15 05:03:24;;;;;;;;;;;;;;;;;;5048808;28;5104;-63
2023/05/15 05:05:50;;;;;;;;;;;;;;;;;;5047864;28;4533;-63
2023/05/15 05:08:15;;;;;;;;;;;;;;;;;;5046472;28;4946;-64
2023/05/15 05:10:40;;;;;;;;;;;;;;;;;;5051042;28;3153;-61
2023/05/15 05:13:05;;;;;;;;;;;;;;;;;;5052410;28;4528;-64
2023/05/15 05:15:31;;;;;;;;;;;;;;;;;;5054415;28;4459;-63
2023/05/15 05:17:56;;;;;;;;;;;;;;;;;;5045843;28;4496;-63
2023/05/15 05:20:21;;;;;;;;;;;;;;;;;;5050455;28;4680;-63
2023/05/15 05:22:47;;;;;;;;;;;;;;;;;;5077530;28;3212;-62
2023/05/15 05:25:12;;;;;;;;;;;;;;;;;;5054680;28;4577;-63
2023/05/15 05:27:37;;;;;;;;;;;;;;;;;;5045339;28;4560;-60
2023/05/15 05:30:03;;;;;;;;;;;;;;;;;;5050539;28;4845;-61
2023/05/15 05:32:28;;;;;;;;;;;;;;;;;;5045289;28;4736;-62
2023/05/15 05:34:53;;;;;;;;;;;;;;;;;;5045431;28;3202;-63
2023/05/15 05:37:18;;;;;;;;;;;;;;;;;;5044786;28;4581;-61
2023/05/15 05:39:45;;;;;;;;;;;;;;;;;;5048747;28;5508;-58
2023/05/15 05:42:11;;;;;;;;;;;;;;;;;;5051903;28;4683;-51
2023/05/15 05:44:36;;;;;;;;;;;;;;;;;;5046346;28;5101;-59
2023/05/15 05:47:01;;;;;;;;;;;;;;;;;;5050389;28;4822;-58
2023/05/15 05:49:26;;;;;;;;;;;;;;;;;;5043905;28;3249;-56
2023/05/15 05:51:51;;;;;;;;;;;;;;;;;;5052171;28;4451;-57
2023/05/15 05:54:17;;;;;;;;;;;;;;;;;;5026208;28;4511;-58
2023/05/15 05:56:42;;;;;;;;;;;;;;;;;;5046493;28;5029;-57
2023/05/15 05:59:07;;;;;;;;;;;;;;;;;;5040404;28;4664;-58
2023/05/15 06:01:33;;;;;;;;;;;;;;;;;;5044108;28;3277;-58
2023/05/15 06:03:58;;;;;;;;;;;;;;;;;;5044584;28;4656;-57
2023/05/15 06:06:23;;;;;;;;;;;;;;;;;;5047927;28;4634;-57
2023/05/15 06:08:49;;;;;;;;;;;;;;;;;;5047919;28;4470;-59
2023/05/15 06:11:14;;;;;;;;;;;;;;;;;;5047089;28;4824;-58
2023/05/15 06:13:40;;;;;;;;;;;;;;;;;;5048728;28;1146;-58
2023/05/15 06:16:05;;;;;;;;;;;;;;;;;;5047877;28;4566;-57
2023/05/15 06:18:31;;;;;;;;;;;;;;;;;;5044219;28;4743;-58
2023/05/15 06:20:59;;;;;;;;;;;;;;;;;;5047845;28;5219;-57
2023/05/15 06:23:24;;;;;;;;;;;;;;;;;;5046684;28;4542;-58
2023/05/15 06:25:49;;;;;;;;;;;;;;;;;;5048874;28;1979;-59
2023/05/15 06:28:14;;;;;;;;;;;;;;;;;;5047884;28;4552;-58
2023/05/15 06:30:40;;;;;;;;;;;;;;;;;;5047111;28;4483;-57
2023/05/15 06:33:05;;;;;;;;;;;;;;;;;;5044606;28;5192;-58
2023/05/15 06:35:30;;;;;;;;;;;;;;;;;;5046689;28;4528;-58
2023/05/15 06:37:55;;;;;;;;;;;;;;;;;;5047897;28;4843;-57
2023/05/15 06:40:21;;;;;;;;;;;;;;;;;;5048721;28;1310;-58
2023/05/15 06:42:46;;;;;;;;;;;;;;;;;;5045918;28;5319;-58
2023/05/15 06:45:11;;;;;;;;;;;;;;;;;;5047108;28;4903;-57
2023/05/15 06:47:37;;;;;;;;;;;;;;;;;;5046811;28;4452;-58
2023/05/15 06:50:03;;;;;;;;;;;;;;;;;;5042304;28;4630;-57
2023/05/15 06:52:28;;;;;;;;;;;;;;;;;;5045493;28;3305;-57
2023/05/15 06:54:53;;;;;;;;;;;;;;;;;;5046378;28;5061;-58
2023/05/15 06:57:19;;;;;;;;;;;;;;;;;;5046088;28;4508;-59
2023/05/15 06:59:44;;;;;;;;;;;;;;;;;;5045373;28;5178;-58
2023/05/15 07:02:09;;;;;;;;;;;;;;;;;;5051675;28;4538;-56
2023/05/15 07:04:35;;;;;;;;;;;;;;;;;;5046608;28;1260;-57
2023/05/15 07:07:00;;;;;;;;;;;;;;;;;;5046060;28;4649;-57
2023/05/15 07:09:25;;;;;;;;;;;;;;;;;;5046137;28;4437;-54
2023/05/15 07:11:51;;;;;;;;;;;;;;;;;;5040058;28;4518;-57
2023/05/15 07:14:16;;;;;;;;;;;;;;;;;;5043762;28;4956;-58
2023/05/15 07:16:41;;;;;;;;;;;;;;;;;;5047689;28;1329;-58
2023/05/15 07:19:07;;;;;;;;;;;;;;;;;;5040693;28;4403;-57
2023/05/15 07:21:32;;;;;;;;;;;;;;;;;;5040610;28;5982;-57
2023/05/15 07:23:57;;;;;;;;;;;;;;;;;;5032675;28;4613;-57
2023/05/15 07:26:23;;;;;;;;;;;;;;;;;;5045225;28;4546;-58
2023/05/15 07:28:48;;;;;;;;;;;;;;;;;;5047450;28;1218;-59
2023/05/15 07:31:13;;;;;;;;;;;;;;;;;;5043411;28;5322;-58
2023/05/15 07:33:38;;;;;;;;;;;;;;;;;;5045331;28;4554;-58
2023/05/15 07:36:04;;;;;;;;;;;;;;;;;;5047878;28;4481;-58
2023/05/15 07:38:29;;;;;;;;;;;;;;;;;;5046408;28;4974;-59
2023/05/15 07:40:54;;;;;;;;;;;;;;;;;;5044821;28;1123;-58
2023/05/15 07:43:20;;;;;;;;;;;;;;;;;;5046467;28;5036;-58
2023/05/15 07:45:45;;;;;;;;;;;;;;;;;;5047464;28;4896;-58
2023/05/15 07:48:14;;;;;;;;;;;;;;;;;;5044276;28;4550;-58
2023/05/15 07:50:39;;;;;;;;;;;;;;;;;;5050376;28;5022;-58
2023/05/15 07:53:04;;;;;;;;;;;;;;;;;;5047375;28;4480;-58
2023/05/15 07:55:30;;;;;;;;;;;;;;;;;;5051971;28;5102;-59
2023/05/15 07:57:55;;;;;;;;;;;;;;;;;;5051160;28;5162;-58
2023/05/15 08:00:20;;;;;;;;;;;;;;;;;;5046503;28;4661;-59
2023/05/15 08:02:46;;;;;;;;;;;;;;;;;;5050474;28;4443;-58
2023/05/15 08:05:11;;;;;;;;;;;;;;;;;;5050429;28;5227;-59
2023/05/15 08:07:36;;;;;;;;;;;;;;;;;;5047803;28;1449;-58
2023/05/15 08:10:04;;;;;;;;;;;;;;;;;;5051428;28;4457;-59
2023/05/15 08:12:30;;;;;;;;;;;;;;;;;;5041641;28;4480;-58
2023/05/15 08:14:55;;;;;;;;;;;;;;;;;;5045322;28;4741;-58
2023/05/15 08:17:20;;;;;;;;;;;;;;;;;;5047546;28;5041;-59
2023/05/15 08:19:46;;;;;;;;;;;;;;;;;;5043171;28;1495;-60
2023/05/15 08:22:11;;;;;;;;;;;;;;;;;;5052414;28;4620;-58
2023/05/15 08:24:37;;;;;;;;;;;;;;;;;;5049202;28;4476;-58
2023/05/15 08:27:03;;;;;;;;;;;;;;;;;;5052433;28;4575;-58
2023/05/15 08:29:29;;;;;;;;;;;;;;;;;;5052771;28;4696;-58
2023/05/15 08:31:54;;;;;;;;;;;;;;;;;;5053666;28;1360;-59
2023/05/15 08:34:20;;;;;;;;;;;;;;;;;;5059724;28;4544;-59
2023/05/15 08:36:45;;;;;;;;;;;;;;;;;;5053322;28;4752;-59
2023/05/15 08:39:10;;;;;;;;;;;;;;;;;;5052819;28;4465;-59
2023/05/15 08:41:56;;;;;;;;;;;;;;;;;;5050169;28;4506;-59
2023/05/15 08:44:21;;;;;;;;;;;;;;;;;;5054417;28;4610;-58
2023/05/15 08:46:46;;;;;;;;;;;;;;;;;;5052039;28;1902;-59
2023/05/15 08:49:19;;;;;;;;;;;;;;;;;;5046055;28;5128;-59
2023/05/15 08:51:45;;;;;;;;;;;;;;;;;;5053727;28;4521;-59
2023/05/15 08:54:10;;;;;;;;;;;;;;;;;;5063109;28;4624;-59
2023/05/15 08:56:35;;;;;;;;;;;;;;;;;;5049724;28;4995;-59
2023/05/15 08:59:00;;;;;;;;;;;;;;;;;;5050942;28;4517;-59
2023/05/15 09:01:26;;;;;;;;;;;;;;;;;;5086980;28;3237;-59
2023/05/15 09:03:51;;;;;;;;;;;;;;;;;;5064648;28;5036;-59
2023/05/15 09:06:16;;;;;;;;;;;;;;;;;;5054076;28;4880;-59
2023/05/15 09:08:42;;;;;;;;;;;;;;;;;;5051194;28;5805;-59
2023/05/15 09:11:07;;;;;;;;;;;;;;;;;;5050799;28;4699;-59
2023/05/15 09:13:32;;;;;;;;;;;;;;;;;;5050377;28;3393;-59
2023/05/15 09:15:58;;;;;;;;;;;;;;;;;;5060604;28;4743;-59
2023/05/15 09:18:23;;;;;;;;;;;;;;;;;;5047115;28;4764;-59
2023/05/15 09:20:48;;;;;;;;;;;;;;;;;;5050847;28;4699;-59
2023/05/15 09:23:40;;;;;;;;;;;;;;;;;;5049958;28;4661;-59
2023/05/15 09:26:05;;;;;;;;;;;;;;;;;;5050179;28;5204;-59
2023/05/15 09:28:31;;;;;;;;;;;;;;;;;;5060579;28;1440;-59
2023/05/15 09:30:57;;;;;;;;;;;;;;;;;;5049605;28;4416;-59
2023/05/15 09:33:26;;;;;;;;;;;;;;;;;;5051110;28;4701;-59
2023/05/15 09:35:52;;;;;;;;;;;;;;;;;;5051762;28;4582;-59
2023/05/15 09:38:18;;;;;;;;;;;;;;;;;;5052582;28;4553;-59
2023/05/15 09:40:43;;;;;;;;;;;;;;;;;;5052632;28;1343;-59
2023/05/15 09:43:09;;;;;;;;;;;;;;;;;;5049988;28;4415;-60
2023/05/15 09:45:34;;;;;;;;;;;;;;;;;;5046874;28;4598;-59
2023/05/15 09:48:01;;;;;;;;;;;;;;;;;;5051349;28;4798;-59
2023/05/15 09:50:36;;;;;;;;;;;;;;;;;;5047337;28;4557;-59
2023/05/15 09:53:01;;;;;;;;;;;;;;;;;;5047802;28;5003;-59
2023/05/15 09:55:26;;;;;;;;;;;;;;;;;;5047404;28;4777;-60
2023/05/15 09:58:12;;;;;;;;;;;;;;;;;;5046979;28;4623;-59
2023/05/15 10:00:37;;;;;;;;;;;;;;;;;;5049243;28;5144;-59
2023/05/15 10:03:03;;;;;;;;;;;;;;;;;;5050446;28;5005;-58
2023/05/15 10:05:29;;;;;;;;;;;;;;;;;;5044728;28;4505;-58
2023/05/15 10:07:55;;;;;;;;;;;;;;;;;;5051460;28;1877;-59
2023/05/15 10:10:20;;;;;;;;;;;;;;;;;;5047101;28;5133;-56
2023/05/15 10:12:45;;;;;;;;;;;;;;;;;;5050005;28;4498;-58
2023/05/15 10:15:10;;;;;;;;;;;;;;;;;;5037926;28;5134;-58
2023/05/15 10:17:36;;;;;;;;;;;;;;;;;;5047486;28;5039;-57
2023/05/15 10:20:01;;;;;;;;;;;;;;;;;;5052256;28;4631;-58
2023/05/15 10:22:29;;;;;;;;;;;;;;;;;;5061350;28;1393;-58
2023/05/15 10:25:15;;;;;;;;;;;;;;;;;;5049986;28;4614;-59
2023/05/15 10:27:40;;;;;;;;;;;;;;;;;;5051318;28;4665;-58
2023/05/15 10:30:06;;;;;;;;;;;;;;;;;;5039041;28;4794;-58
2023/05/15 10:32:31;;;;;;;;;;;;;;;;;;5047156;28;5026;-58
2023/05/15 10:34:56;;;;;;;;;;;;;;;;;;5045212;28;4615;-58
2023/05/15 10:37:22;;;;;;;;;;;;;;;;;;5050458;28;1603;-58
2023/05/15 10:39:47;;;;;;;;;;;;;;;;;;5034370;28;5142;-58
2023/05/15 10:42:12;;;;;;;;;;;;;;;;;;5047144;28;4482;-58
2023/05/15 10:44:38;;;;;;;;;;;;;;;;;;5048599;28;4540;-57
2023/05/15 10:47:03;;;;;;;;;;;;;;;;;;5053106;28;5040;-58
2023/05/15 10:49:28;;;;;;;;;;;;;;;;;;5051365;28;1407;-58
2023/05/15 10:51:53;;;;;;;;;;;;;;;;;;5050433;28;4599;-58
2023/05/15 10:54:20;;;;;;;;;;;;;;;;;;5074150;28;4439;-59
2023/05/15 10:56:45;;;;;;;;;;;;;;;;;;5043685;28;4959;-58
2023/05/15 10:59:10;;;;;;;;;;;;;;;;;;5078004;28;4509;-57
2023/05/15 11:01:36;;;;;;;;;;;;;;;;;;5063618;28;1428;-59
2023/05/15 11:04:11;;;;;;;;;;;;;;;;;;5048779;28;5032;-58
2023/05/15 11:06:37;;;;;;;;;;;;;;;;;;5055024;28;4688;-59
2023/05/15 11:09:23;;;;;;;;;;;;;;;;;;5046631;28;4497;-58
2023/05/15 11:11:59;;;;;;;;;;;;;;;;;;5049567;28;4781;-58
2023/05/15 11:14:31;;;;;;;;;;;;;;;;;;5049130;28;5129;-58
2023/05/15 11:16:57;;;;;;;;;;;;;;;;;;5045368;28;4528;-58
2023/05/15 11:19:22;;;;;;;;;;;;;;;;;;5046870;28;3008;-58
2023/05/15 11:21:52;;;;;;;;;;;;;;;;;;5047974;28;5039;-58
2023/05/15 11:24:18;;;;;;;;;;;;;;;;;;5038342;28;4472;-58
2023/05/15 11:26:43;;;;;;;;;;;;;;;;;;5048221;28;4498;-57
2023/05/15 11:29:17;;;;;;;;;;;;;;;;;;5049986;28;4580;-58
2023/05/15 11:31:43;;;;;;;;;;;;;;;;;;5049201;28;3242;-63
2023/05/15 11:34:08;;;;;;;;;;;;;;;;;;5049412;28;4610;-58
2023/05/15 11:36:33;;;;;;;;;;;;;;;;;;5047336;28;5006;-58
2023/05/15 11:38:58;;;;;;;;;;;;;;;;;;5075893;28;4531;-58
2023/05/15 11:41:28;;;;;;;;;;;;;;;;;;5049208;28;5550;-58
2023/05/15 11:43:54;;;;;;;;;;;;;;;;;;5061694;28;1580;-58
2023/05/15 11:46:19;;;;;;;;;;;;;;;;;;5049548;28;4442;-59
2023/05/15 11:48:48;;;;;;;;;;;;;;;;;;5052960;28;4632;-58
2023/05/15 11:51:13;;;;;;;;;;;;;;;;;;5047183;28;4512;-58
2023/05/15 11:53:38;;;;;;;;;;;;;;;;;;5054816;28;4991;-58
2023/05/15 11:56:03;;;;;;;;;;;;;;;;;;5053183;28;4888;-59
2023/05/15 11:58:29;;;;;;;;;;;;;;;;;;5055759;28;1659;-58
2023/05/15 12:00:55;;;;;;;;;;;;;;;;;;5059091;28;4645;-58
2023/05/15 12:03:23;;;;;;;;;;;;;;;;;;5059405;28;5142;-58
2023/05/15 12:05:50;;;;;;;;;;;;;;;;;;5055894;28;5169;-57
2023/05/15 12:08:15;;;;;;;;;;;;;;;;;;5058488;28;5014;-58
2023/05/15 12:10:41;;;;;;;;;;;;;;;;;;5060475;28;2263;-58
2023/05/15 12:13:06;;;;;;;;;;;;;;;;;;5060063;28;4446;-58
2023/05/15 12:15:31;;;;;;;;;;;;;;;;;;5066453;28;4475;-57
2023/05/15 12:17:57;;;;;;;;;;;;;;;;;;5048533;28;4589;-57
2023/05/15 12:20:22;;;;;;;;;;;;;;;;;;5060980;28;5100;-58
2023/05/15 12:22:47;;;;;;;;;;;;;;;;;;5050256;28;3122;-58
2023/05/15 12:25:13;;;;;;;;;;;;;;;;;;5061476;28;4423;-57
2023/05/15 12:27:38;;;;;;;;;;;;;;;;;;5061014;28;4495;-57
2023/05/15 12:30:04;;;;;;;;;;;;;;;;;;5049235;28;4599;-58
2023/05/15 12:32:30;;;;;;;;;;;;;;;;;;5053468;28;4550;-58
2023/05/15 12:34:55;;;;;;;;;;;;;;;;;;5058221;28;4630;-56
2023/05/15 12:37:20;;;;;;;;;;;;;;;;;;5051092;28;1575;-58
2023/05/15 12:39:55;;;;;;;;;;;;;;;;;;5057674;28;4482;-58
2023/05/15 12:42:21;;;;;;;;;;;;;;;;;;5056866;28;4462;-58
2023/05/15 12:44:49;;;;;;;;;;;;;;;;;;5057661;28;4464;-59
2023/05/15 12:47:14;;;;;;;;;;;;;;;;;;5055457;28;4505;-58
2023/05/15 12:49:40;;;;;;;;;;;;;;;;;;5048116;28;1405;-58
2023/05/15 12:52:09;;;;;;;;;;;;;;;;;;5061224;28;5026;-59
2023/05/15 12:54:37;;;;;;;;;;;;;;;;;;5058119;28;4652;-59
2023/05/15 12:57:03;;;;;;;;;;;;;;;;;;5059386;28;5102;-59
2023/05/15 12:59:28;;;;;;;;;;;;;;;;;;5057794;28;4463;-58
2023/05/15 13:01:53;;;;;;;;;;;;;;;;;;5060028;28;1247;-59
2023/05/15 13:04:19;;;;;;;;;;;;;;;;;;5057568;28;5024;-59
2023/05/15 13:06:44;;;;;;;;;;;;;;;;;;5052569;28;6082;-59
2023/05/15 13:09:10;;;;;;;;;;;;;;;;;;5046431;28;4493;-58
2023/05/15 13:11:35;;;;;;;;;;;;;;;;;;5054132;28;4740;-55
2023/05/15 13:14:06;;;;;;;;;;;;;;;;;;5045603;28;4896;-56
2023/05/15 13:16:32;;;;;;;;;;;;;;;;;;5059081;28;3334;-54
2023/05/15 13:18:57;;;;;;;;;;;;;;;;;;5050236;28;4846;-53
2023/05/15 13:21:22;;;;;;;;;;;;;;;;;;5047875;28;5045;-57
2023/05/15 13:23:49;;;;;;;;;;;;;;;;;;5044342;28;4701;-57
2023/05/15 13:26:14;;;;;;;;;;;;;;;;;;5047308;28;4596;-57
2023/05/15 13:28:40;;;;;;;;;;;;;;;;;;5048000;28;3190;-57
2023/05/15 13:31:05;;;;;;;;;;;;;;;;;;5046805;28;4641;-57
2023/05/15 13:33:31;;;;;;;;;;;;;;;;;;5047569;28;4487;-57
2023/05/15 13:35:56;;;;;;;;;;;;;;;;;;5041997;28;5074;-56
2023/05/15 13:38:21;;;;;;;;;;;;;;;;;;5044349;28;5063;-57
2023/05/15 13:40:46;;;;;;;;;;;;;;;;;;5042139;28;3637;-57
2023/05/15 13:43:12;;;;;;;;;;;;;;;;;;5040447;28;4389;-58
2023/05/15 13:45:37;;;;;;;;;;;;;;;;;;5041766;28;5045;-55
2023/05/15 13:48:03;;;;;;;;;;;;;;;;;;5036941;28;5033;-55
2023/05/15 13:50:28;;;;;;;;;;;;;;;;;;5045442;28;4760;-57
2023/05/15 13:52:53;;;;;;;;;;;;;;;;;;5044754;28;3185;-59
2023/05/15 13:55:18;;;;;;;;;;;;;;;;;;5044935;28;4750;-58
2023/05/15 13:57:44;;;;;;;;;;;;;;;;;;5042726;28;5058;-60
2023/05/15 14:00:12;;;;;;;;;;;;;;;;;;5051322;28;4689;-56
2023/05/15 14:02:41;;;;;;;;;;;;;;;;;;5044250;28;4500;-56
2023/05/15 14:05:07;;;;;;;;;;;;;;;;;;5045609;28;4589;-55
2023/05/15 14:07:32;;;;;;;;;;;;;;;;;;5047905;28;2965;-57
2023/05/15 14:09:57;;;;;;;;;;;;;;;;;;5045647;28;4456;-57
2023/05/15 14:12:23;;;;;;;;;;;;;;;;;;5044273;28;4475;-56
2023/05/15 14:14:49;;;;;;;;;;;;;;;;;;5046822;28;4633;-56
2023/05/15 14:17:14;;;;;;;;;;;;;;;;;;5045919;28;4701;-61
2023/05/15 14:19:40;;;;;;;;;;;;;;;;;;5046226;28;1346;-58
2023/05/15 14:22:05;;;;;;;;;;;;;;;;;;5045483;28;4572;-62
2023/05/15 14:24:30;;;;;;;;;;;;;;;;;;5041240;28;4512;-60
2023/05/15 14:26:55;;;;;;;;;;;;;;;;;;5038991;28;5045;-59
2023/05/15 14:29:21;;;;;;;;;;;;;;;;;;5047119;28;5067;-59
2023/05/15 14:31:46;;;;;;;;;;;;;;;;;;5042498;28;3441;-58
2023/05/15 14:34:11;;;;;;;;;;;;;;;;;;5047258;28;4463;-59
2023/05/15 14:36:37;;;;;;;;;;;;;;;;;;5043925;28;5058;-59
2023/05/15 14:39:03;;;;;;;;;;;;;;;;;;5046524;28;4967;-58
2023/05/15 14:41:28;;;;;;;;;;;;;;;;;;5046046;28;4451;-59
2023/05/15 14:43:53;;;;;;;;;;;;;;;;;;5047122;28;1205;-59
2023/05/15 14:46:18;;;;;;;;;;;;;;;;;;5044660;28;4610;-59
2023/05/15 14:48:44;;;;;;;;;;;;;;;;;;5041776;28;4623;-59
2023/05/15 14:51:09;;;;;;;;;;;;;;;;;;5047127;28;4624;-59
2023/05/15 14:53:34;;;;;;;;;;;;;;;;;;5046944;28;4589;-59
2023/05/15 14:56:00;;;;;;;;;;;;;;;;;;5046830;28;4997;-58
2023/05/15 14:58:25;;;;;;;;;;;;;;;;;;5045057;28;3467;-59
2023/05/15 15:00:50;;;;;;;;;;;;;;;;;;5047088;28;4441;-59
2023/05/15 15:03:17;;;;;;;;;;;;;;;;;;5046750;28;4608;-58
2023/05/15 15:05:43;;;;;;;;;;;;;;;;;;5044637;28;4709;-58
2023/05/15 15:08:08;;;;;;;;;;;;;;;;;;5044051;28;4481;-59
2023/05/15 15:10:37;;;;;;;;;;;;;;;;;;5040295;28;3178;-60
2023/05/15 15:13:02;;;;;;;;;;;;;;;;;;5043559;28;4608;-59
2023/05/15 15:15:29;;;;;;;;;;;;;;;;;;5045442;28;4509;-59
2023/05/15 15:17:56;;;;;;;;;;;;;;;;;;5044539;28;4458;-59
2023/05/15 15:20:21;;;;;;;;;;;;;;;;;;5043466;28;4769;-59
2023/05/15 15:22:47;;;;;;;;;;;;;;;;;;5045743;28;1375;-59
2023/05/15 15:25:12;;;;;;;;;;;;;;;;;;5045024;28;4669;-59
2023/05/15 15:27:37;;;;;;;;;;;;;;;;;;5047717;28;4450;-59
2023/05/15 15:30:03;;;;;;;;;;;;;;;;;;5046564;28;5016;-59
2023/05/15 15:32:29;;;;;;;;;;;;;;;;;;5046357;28;4744;-59
2023/05/15 15:34:55;;;;;;;;;;;;;;;;;;5048027;28;1276;-59
2023/05/15 15:37:20;;;;;;;;;;;;;;;;;;5045720;28;4757;-59
2023/05/15 15:39:45;;;;;;;;;;;;;;;;;;5046323;28;4987;-59
2023/05/15 15:42:11;;;;;;;;;;;;;;;;;;5046747;28;5100;-59
2023/05/15 15:44:36;;;;;;;;;;;;;;;;;;5044002;28;4654;-59
2023/05/15 15:47:01;;;;;;;;;;;;;;;;;;5044723;28;4511;-60
2023/05/15 15:49:27;;;;;;;;;;;;;;;;;;5041643;28;1503;-59
2023/05/15 15:51:52;;;;;;;;;;;;;;;;;;5046635;28;4827;-58
2023/05/15 15:54:17;;;;;;;;;;;;;;;;;;5047193;28;4651;-59
2023/05/15 15:56:42;;;;;;;;;;;;;;;;;;5044691;28;4817;-59
2023/05/15 15:59:08;;;;;;;;;;;;;;;;;;5047657;28;5102;-58
2023/05/15 16:01:33;;;;;;;;;;;;;;;;;;5048182;28;1186;-59
2023/05/15 16:03:58;;;;;;;;;;;;;;;;;;5046829;28;4442;-59
2023/05/15 16:06:23;;;;;;;;;;;;;;;;;;5043146;28;5394;-58
2023/05/15 16:08:49;;;;;;;;;;;;;;;;;;5047057;28;4651;-59
2023/05/15 16:11:15;;;;;;;;;;;;;;;;;;5061717;28;4772;-60
2023/05/15 16:13:40;;;;;;;;;;;;;;;;;;5047772;28;1111;-60
2023/05/15 16:16:05;;;;;;;;;;;;;;;;;;5044569;28;6036;-56
2023/05/15 16:18:31;;;;;;;;;;;;;;;;;;5041205;28;4689;-55
2023/05/15 16:20:56;;;;;;;;;;;;;;;;;;5045124;28;4493;-56
2023/05/15 16:23:21;;;;;;;;;;;;;;;;;;5046839;28;4442;-57
2023/05/15 16:25:47;;;;;;;;;;;;;;;;;;5047104;28;1902;-56
2023/05/15 16:28:12;;;;;;;;;;;;;;;;;;5046576;28;4665;-57
2023/05/15 16:30:37;;;;;;;;;;;;;;;;;;5046424;28;4994;-57
2023/05/15 16:33:02;;;;;;;;;;;;;;;;;;5044997;28;4496;-57
2023/05/15 16:35:28;;;;;;;;;;;;;;;;;;5045431;28;4650;-56
2023/05/15 16:37:53;;;;;;;;;;;;;;;;;;5045635;28;1308;-57
2023/05/15 16:40:18;;;;;;;;;;;;;;;;;;5044842;28;5280;-58
2023/05/15 16:42:43;;;;;;;;;;;;;;;;;;5050217;28;4821;-59
2023/05/15 16:45:09;;;;;;;;;;;;;;;;;;5048984;28;5083;-58
2023/05/15 16:47:35;;;;;;;;;;;;;;;;;;5079965;28;4728;-58
2023/05/15 16:50:00;;;;;;;;;;;;;;;;;;5045783;28;5048;-59
2023/05/15 16:52:26;;;;;;;;;;;;;;;;;;5050272;28;1346;-58
2023/05/15 16:54:51;;;;;;;;;;;;;;;;;;5049598;28;4992;-58